Scheldegracht — PFAQ — position and weather

sailwx.info

Track history (hours):
 
Tides and Currents Weather Stations Pressure Air Temp Water Temp Dewpoint Dewpoint Depression Visibility Wind Speed Wind Dir Waves Ship Positions

Scheldegracht

Last reported at 2019-May-24 00:30 UTC. Time now 2019-May-24 00:49 UTC.
Position N 52°13' E 003°01'.

Length 173 m; beam 26 m.

Type: Cargo ship. MMSI: 244730000.

Date/timePositionNaut miles runAvg speedWind from/ knotsBaromVisibWave heightAir tempDewpointWater temp
2019-May-24 00:30N 52°13' E 003°01'1018.7
2019-May-23 23:59N 52°21' E 003°10'1218.7
2019-May-23 23:20N 52°31' E 003°22'618.4
2019-May-23 23:00N 52°35' E 003°28'1018.1
2019-May-23 22:26N 52°43' E 003°39'817.6
2019-May-23 22:00N 52°49' E 003°47'817.2
2019-May-23 21:30N 52°56' E 003°56'816.8
2019-May-23 21:01N 53°02' E 004°06'816.6
2019-May-23 20:31N 53°07' E 004°16'815.9
2019-May-23 20:01N 53°13' E 004°25'815.9
2019-May-23 19:31N 53°20' E 004°31'916.0
2019-May-23 18:58N 53°28' E 004°37'2416.9
2019-May-23 17:33N 53°37' E 005°14'118.0
2019-May-23 17:30N 53°37' E 005°15'5514.2
2019-May-23 13:38N 53°31' E 006°47'213.4
2019-May-23 13:30N 53°29' E 006°49'2 3.0
2019-May-23 12:44N 53°27' E 006°50'0 0.0
2019-May-23 12:29N 53°27' E 006°50'0 0.0
2019-May-23 11:53N 53°27' E 006°50'0 0.0
2019-May-23 10:56N 53°27' E 006°50'0 0.0
2019-May-23 10:23N 53°27' E 006°50'0 0.0
2019-May-23 09:59N 53°27' E 006°50'0 0.0
2019-May-23 09:11N 53°27' E 006°50'0 0.0
2019-May-23 08:53N 53°27' E 006°50'0 0.0
2019-May-23 08:23N 53°27' E 006°50'0 0.0
2019-May-23 07:58N 53°27' E 006°50'0 0.0
2019-May-23 07:28N 53°27' E 006°50'0 0.0
2019-May-23 06:58N 53°27' E 006°50'0 0.0
2019-May-23 06:22N 53°27' E 006°50'0 0.0
2019-May-23 05:58N 53°27' E 006°50'0 0.0
2019-May-23 05:28N 53°27' E 006°50'0 0.0
2019-May-23 04:58N 53°27' E 006°50'0 0.0
2019-May-23 04:28N 53°27' E 006°50'0 0.0
2019-May-23 03:52N 53°27' E 006°50'0 0.0
2019-May-23 03:28N 53°27' E 006°50'0 0.0
2019-May-23 02:58N 53°27' E 006°50'0 0.0
2019-May-23 02:25N 53°27' E 006°50'0 0.0
2019-May-23 01:55N 53°27' E 006°50'0 0.0
2019-May-23 01:28N 53°27' E 006°50'0 0.0
2019-May-23 00:58N 53°27' E 006°50'0 0.0
2019-May-23 00:28N 53°27' E 006°50'0 0.1
2019-May-23 00:00N 53°27' E 006°50'2 3.6
2019-May-22 23:30N 53°29' E 006°50'20712.5
2019-May-22 06:55N 56°53' E 007°57'816.9
2019-May-22 06:28N 56°60' E 008°03'817.0
2019-May-22 05:58N 57°07' E 008°10'817.1
2019-May-22 05:29N 57°15' E 008°17'1115.9
2019-May-22 04:47N 57°22' E 008°33'516.5
2019-May-22 04:29N 57°24' E 008°41'816.6
2019-May-22 03:59N 57°28' E 008°54'1716.4
2019-May-22 02:56N 57°37' E 009°22'916.0
2019-May-22 02:22N 57°41' E 009°37'616.2
2019-May-22 02:00N 57°44' E 009°46'916.6
2019-May-22 01:29N 57°48' E 010°01'817.2
2019-May-22 01:00N 57°48' E 010°17'817.1
2019-May-22 00:30N 57°49' E 010°32'815.7
2019-May-21 23:59N 57°47' E 010°47'816.6
2019-May-21 23:30N 57°42' E 010°58'917.5
2019-May-21 23:00N 57°36' E 011°11'918.3
2019-May-21 22:30N 57°30' E 011°23'918.1
2019-May-21 22:00N 57°22' E 011°31'918.4
2019-May-21 21:30N 57°13' E 011°36'918.1
2019-May-21 20:59N 57°04' E 011°42'1117.9
2019-May-21 20:22N 56°54' E 011°49'10216.0
2019-May-21 13:59N 55°14' E 011°06'816.0
2019-May-21 13:30N 55°08' E 010°60'817.2
2019-May-21 13:00N 54°59' E 010°59'917.3
2019-May-21 12:30N 54°52' E 010°50'917.5
2019-May-21 12:00N 54°43' E 010°47'815.1
2019-May-21 11:30N 54°38' E 010°55'816.8
2019-May-21 11:00N 54°36' E 011°10'918.0
2019-May-21 10:30N 54°32' E 011°24'917.1
2019-May-21 10:00N 54°29' E 011°37'816.7
2019-May-21 09:31N 54°26' E 011°51'916.9
2019-May-21 09:00N 54°26' E 012°06'714.6
2019-May-21 08:30N 54°32' E 012°14'815.7
2019-May-21 08:00N 54°38' E 012°22'816.8
2019-May-21 07:30N 54°43' E 012°34'7417.5
2019-May-21 03:19N 55°19' E 014°26'718.5
2019-May-21 02:55N 55°25' E 014°33'818.0
2019-May-21 02:29N 55°29' E 014°44'1818.5
2019-May-21 01:32N 55°38' E 015°11'018.5
2019-May-21 01:30N 55°38' E 015°12'918.3
2019-May-21 01:00N 55°43' E 015°26'918.4
2019-May-21 00:30N 55°47' E 015°40'918.5
2019-May-21 00:00N 55°52' E 015°54'918.4
2019-May-20 23:30N 55°57' E 016°09'918.4
2019-May-20 23:00N 56°01' E 016°23'918.4
2019-May-20 22:30N 56°06' E 016°37'917.4
2019-May-20 21:58N 56°13' E 016°49'818.2
2019-May-20 21:30N 56°20' E 016°54'918.2
2019-May-20 21:00N 56°29' E 017°00'918.3
2019-May-20 20:30N 56°37' E 017°06'17418.2
2019-May-20 10:56N 59°11' E 019°41'2117.9
2019-May-20 09:46N 59°29' E 020°02'2016.7
2019-May-20 08:35N 59°46' E 019°42'118.0
2019-May-20 08:30N 59°47' E 019°40'917.8
2019-May-20 08:00N 59°54' E 019°29'917.8
2019-May-20 07:30N 60°01' E 019°17'917.9
2019-May-20 07:00N 60°07' E 019°06'917.2
2019-May-20 06:30N 60°15' E 018°60'1118.0
2019-May-20 05:53N 60°27' E 018°59'17117.7
2019-May-19 20:12N 63°18' E 019°16'131 2.9
2019-May-17 22:54N 61°16' E 020°57'717.7
2019-May-17 22:30N 61°09' E 021°03'713.5
2019-May-17 22:00N 61°06' E 021°16'5 9.6
2019-May-17 21:30N 61°07' E 021°25'1 1.0
2019-May-17 21:00N 61°08' E 021°26'0 0.0
2019-May-17 20:30N 61°08' E 021°26'0 0.0
2019-May-17 20:00N 61°08' E 021°26'0 0.0
2019-May-17 19:30N 61°08' E 021°26'0 0.0
2019-May-17 19:00N 61°08' E 021°26'0 0.0
2019-May-17 18:30N 61°08' E 021°26'0 0.0
2019-May-17 18:00N 61°08' E 021°26'0 0.0
2019-May-17 17:27N 61°08' E 021°26'0 0.0
2019-May-17 17:00N 61°08' E 021°26'0 0.0
2019-May-17 16:30N 61°08' E 021°26'0 0.0
2019-May-17 15:57N 61°08' E 021°26'0 0.0
2019-May-17 15:30N 61°08' E 021°26'0 0.0
2019-May-17 14:57N 61°08' E 021°26'0 0.0
2019-May-17 14:27N 61°08' E 021°26'0 0.0
2019-May-17 13:57N 61°08' E 021°26'0 0.0
2019-May-17 13:30N 61°08' E 021°26'0 0.0
2019-May-17 13:00N 61°08' E 021°26'0 0.0
2019-May-17 12:30N 61°08' E 021°26'0 0.0
2019-May-17 12:00N 61°08' E 021°26'0 0.0
2019-May-17 11:30N 61°08' E 021°26'0 0.0
2019-May-17 11:00N 61°08' E 021°26'0 0.0
2019-May-17 10:30N 61°08' E 021°26'0 0.0
2019-May-17 10:00N 61°08' E 021°26'0 0.0
2019-May-17 09:30N 61°08' E 021°26'0 0.0
2019-May-17 09:00N 61°08' E 021°26'0 0.0
2019-May-17 08:30N 61°08' E 021°26'0 0.0
2019-May-17 08:00N 61°08' E 021°26'0 0.0
2019-May-17 07:30N 61°08' E 021°26'0 0.0
2019-May-17 07:00N 61°08' E 021°26'0 0.0
2019-May-17 06:30N 61°08' E 021°26'0 0.0
2019-May-17 06:00N 61°08' E 021°26'0 0.0
2019-May-17 05:30N 61°08' E 021°26'0 0.0
2019-May-17 05:00N 61°08' E 021°26'0 0.0
2019-May-17 04:30N 61°08' E 021°26'0 0.0
2019-May-17 04:00N 61°08' E 021°26'0 0.0
2019-May-17 03:30N 61°08' E 021°26'0 0.0
2019-May-17 03:00N 61°08' E 021°26'0 0.0
2019-May-17 02:30N 61°08' E 021°26'0 0.0
2019-May-17 02:00N 61°08' E 021°26'0 0.0
2019-May-17 01:30N 61°08' E 021°26'0 0.0
2019-May-17 01:00N 61°08' E 021°26'0 0.0
2019-May-17 00:30N 61°08' E 021°26'0 0.0
2019-May-17 00:00N 61°08' E 021°26'0 0.0
2019-May-16 23:30N 61°08' E 021°26'0 0.0
2019-May-16 23:00N 61°08' E 021°26'0 0.0
2019-May-16 22:30N 61°08' E 021°26'0 0.0
2019-May-16 21:54N 61°08' E 021°26'0 0.0
2019-May-16 21:27N 61°08' E 021°26'0 0.0
2019-May-16 20:57N 61°08' E 021°26'0 0.0
2019-May-16 20:30N 61°08' E 021°26'0 0.0
2019-May-16 19:57N 61°08' E 021°26'0 0.0
2019-May-16 19:30N 61°08' E 021°26'0 0.0
2019-May-16 18:57N 61°08' E 021°26'0 0.0
2019-May-16 18:27N 61°08' E 021°26'0 0.0
2019-May-16 17:59N 61°08' E 021°26'0 0.0
2019-May-16 17:29N 61°08' E 021°26'0 0.0
2019-May-16 16:59N 61°08' E 021°26'0 0.0
2019-May-16 16:29N 61°08' E 021°26'0 0.0
2019-May-16 15:59N 61°08' E 021°26'0 0.0
2019-May-16 15:20N 61°08' E 021°26'0 0.0
2019-May-16 15:00N 61°08' E 021°26'0 0.0
2019-May-16 14:30N 61°08' E 021°26'0 0.0
2019-May-16 13:59N 61°08' E 021°26'0 0.0
2019-May-16 13:26N 61°08' E 021°26'0 0.0
2019-May-16 13:00N 61°08' E 021°26'0 0.6
2019-May-16 12:30N 61°08' E 021°26'4 7.0
2019-May-16 12:00N 61°06' E 021°19'612.0
2019-May-16 11:31N 61°08' E 021°08'7318.5
2019-May-16 07:32N 60°28' E 019°02'218.9
2019-May-16 07:26N 60°26' E 019°02'818.8
2019-May-16 07:00N 60°18' E 019°01'918.4
2019-May-16 06:31N 60°10' E 019°09'918.8
2019-May-16 06:00N 60°02' E 019°21'918.8
2019-May-16 05:31N 59°55' E 019°33'918.7
2019-May-16 05:01N 59°48' E 019°45'  
Track history (hours):
 
Tides and Currents Weather Stations Pressure Air Temp Water Temp Dewpoint Dewpoint Depression Visibility Wind Speed Wind Dir Waves Ship Positions

Scheldegracht

Last reported at 2019-May-24 00:30 UTC. Time now 2019-May-24 00:49 UTC.
Position N 52°13' E 003°01'.

Length 173 m; beam 26 m.

Type: Cargo ship. MMSI: 244730000.

Date/timePositionNaut miles runAvg speedWind from/ knotsBaromVisibWave heightAir tempDewpointWater temp
2019-May-24 00:30N 52°13' E 003°01'1018.7
2019-May-23 23:59N 52°21' E 003°10'1218.7
2019-May-23 23:20N 52°31' E 003°22'618.4
2019-May-23 23:00N 52°35' E 003°28'1018.1
2019-May-23 22:26N 52°43' E 003°39'817.6
2019-May-23 22:00N 52°49' E 003°47'817.2
2019-May-23 21:30N 52°56' E 003°56'816.8
2019-May-23 21:01N 53°02' E 004°06'816.6
2019-May-23 20:31N 53°07' E 004°16'815.9
2019-May-23 20:01N 53°13' E 004°25'815.9
2019-May-23 19:31N 53°20' E 004°31'916.0
2019-May-23 18:58N 53°28' E 004°37'2416.9
2019-May-23 17:33N 53°37' E 005°14'118.0
2019-May-23 17:30N 53°37' E 005°15'5514.2
2019-May-23 13:38N 53°31' E 006°47'213.4
2019-May-23 13:30N 53°29' E 006°49'2 3.0
2019-May-23 12:44N 53°27' E 006°50'0 0.0
2019-May-23 12:29N 53°27' E 006°50'0 0.0
2019-May-23 11:53N 53°27' E 006°50'0 0.0
2019-May-23 10:56N 53°27' E 006°50'0 0.0
2019-May-23 10:23N 53°27' E 006°50'0 0.0
2019-May-23 09:59N 53°27' E 006°50'0 0.0
2019-May-23 09:11N 53°27' E 006°50'0 0.0
2019-May-23 08:53N 53°27' E 006°50'0 0.0
2019-May-23 08:23N 53°27' E 006°50'0 0.0
2019-May-23 07:58N 53°27' E 006°50'0 0.0
2019-May-23 07:28N 53°27' E 006°50'0 0.0
2019-May-23 06:58N 53°27' E 006°50'0 0.0
2019-May-23 06:22N 53°27' E 006°50'0 0.0
2019-May-23 05:58N 53°27' E 006°50'0 0.0
2019-May-23 05:28N 53°27' E 006°50'0 0.0
2019-May-23 04:58N 53°27' E 006°50'0 0.0
2019-May-23 04:28N 53°27' E 006°50'0 0.0
2019-May-23 03:52N 53°27' E 006°50'0 0.0
2019-May-23 03:28N 53°27' E 006°50'0 0.0
2019-May-23 02:58N 53°27' E 006°50'0 0.0
2019-May-23 02:25N 53°27' E 006°50'0 0.0
2019-May-23 01:55N 53°27' E 006°50'0 0.0
2019-May-23 01:28N 53°27' E 006°50'0 0.0
2019-May-23 00:58N 53°27' E 006°50'0 0.0
2019-May-23 00:28N 53°27' E 006°50'0 0.1
2019-May-23 00:00N 53°27' E 006°50'2 3.6
2019-May-22 23:30N 53°29' E 006°50'20712.5
2019-May-22 06:55N 56°53' E 007°57'816.9
2019-May-22 06:28N 56°60' E 008°03'817.0
2019-May-22 05:58N 57°07' E 008°10'817.1
2019-May-22 05:29N 57°15' E 008°17'1115.9
2019-May-22 04:47N 57°22' E 008°33'516.5
2019-May-22 04:29N 57°24' E 008°41'816.6
2019-May-22 03:59N 57°28' E 008°54'1716.4
2019-May-22 02:56N 57°37' E 009°22'916.0
2019-May-22 02:22N 57°41' E 009°37'616.2
2019-May-22 02:00N 57°44' E 009°46'916.6
2019-May-22 01:29N 57°48' E 010°01'817.2
2019-May-22 01:00N 57°48' E 010°17'817.1
2019-May-22 00:30N 57°49' E 010°32'815.7
2019-May-21 23:59N 57°47' E 010°47'816.6
2019-May-21 23:30N 57°42' E 010°58'917.5
2019-May-21 23:00N 57°36' E 011°11'918.3
2019-May-21 22:30N 57°30' E 011°23'918.1
2019-May-21 22:00N 57°22' E 011°31'918.4
2019-May-21 21:30N 57°13' E 011°36'918.1
2019-May-21 20:59N 57°04' E 011°42'1117.9
2019-May-21 20:22N 56°54' E 011°49'10216.0
2019-May-21 13:59N 55°14' E 011°06'816.0
2019-May-21 13:30N 55°08' E 010°60'817.2
2019-May-21 13:00N 54°59' E 010°59'917.3
2019-May-21 12:30N 54°52' E 010°50'917.5
2019-May-21 12:00N 54°43' E 010°47'815.1
2019-May-21 11:30N 54°38' E 010°55'816.8
2019-May-21 11:00N 54°36' E 011°10'918.0
2019-May-21 10:30N 54°32' E 011°24'917.1
2019-May-21 10:00N 54°29' E 011°37'816.7
2019-May-21 09:31N 54°26' E 011°51'916.9
2019-May-21 09:00N 54°26' E 012°06'714.6
2019-May-21 08:30N 54°32' E 012°14'815.7
2019-May-21 08:00N 54°38' E 012°22'816.8
2019-May-21 07:30N 54°43' E 012°34'7417.5
2019-May-21 03:19N 55°19' E 014°26'718.5
2019-May-21 02:55N 55°25' E 014°33'818.0
2019-May-21 02:29N 55°29' E 014°44'1818.5
2019-May-21 01:32N 55°38' E 015°11'018.5
2019-May-21 01:30N 55°38' E 015°12'918.3
2019-May-21 01:00N 55°43' E 015°26'918.4
2019-May-21 00:30N 55°47' E 015°40'918.5
2019-May-21 00:00N 55°52' E 015°54'918.4
2019-May-20 23:30N 55°57' E 016°09'918.4
2019-May-20 23:00N 56°01' E 016°23'918.4
2019-May-20 22:30N 56°06' E 016°37'917.4
2019-May-20 21:58N 56°13' E 016°49'818.2
2019-May-20 21:30N 56°20' E 016°54'918.2
2019-May-20 21:00N 56°29' E 017°00'918.3
2019-May-20 20:30N 56°37' E 017°06'17418.2
2019-May-20 10:56N 59°11' E 019°41'2117.9
2019-May-20 09:46N 59°29' E 020°02'2016.7
2019-May-20 08:35N 59°46' E 019°42'118.0
2019-May-20 08:30N 59°47' E 019°40'917.8
2019-May-20 08:00N 59°54' E 019°29'917.8
2019-May-20 07:30N 60°01' E 019°17'917.9
2019-May-20 07:00N 60°07' E 019°06'917.2
2019-May-20 06:30N 60°15' E 018°60'1118.0
2019-May-20 05:53N 60°27' E 018°59'17117.7
2019-May-19 20:12N 63°18' E 019°16'131 2.9
2019-May-17 22:54N 61°16' E 020°57'717.7
2019-May-17 22:30N 61°09' E 021°03'713.5
2019-May-17 22:00N 61°06' E 021°16'5 9.6
2019-May-17 21:30N 61°07' E 021°25'1 1.0
2019-May-17 21:00N 61°08' E 021°26'0 0.0
2019-May-17 20:30N 61°08' E 021°26'0 0.0
2019-May-17 20:00N 61°08' E 021°26'0 0.0
2019-May-17 19:30N 61°08' E 021°26'0 0.0
2019-May-17 19:00N 61°08' E 021°26'0 0.0
2019-May-17 18:30N 61°08' E 021°26'0 0.0
2019-May-17 18:00N 61°08' E 021°26'0 0.0
2019-May-17 17:27N 61°08' E 021°26'0 0.0
2019-May-17 17:00N 61°08' E 021°26'0 0.0
2019-May-17 16:30N 61°08' E 021°26'0 0.0
2019-May-17 15:57N 61°08' E 021°26'0 0.0
2019-May-17 15:30N 61°08' E 021°26'0 0.0
2019-May-17 14:57N 61°08' E 021°26'0 0.0
2019-May-17 14:27N 61°08' E 021°26'0 0.0
2019-May-17 13:57N 61°08' E 021°26'0 0.0
2019-May-17 13:30N 61°08' E 021°26'0 0.0
2019-May-17 13:00N 61°08' E 021°26'0 0.0
2019-May-17 12:30N 61°08' E 021°26'0 0.0
2019-May-17 12:00N 61°08' E 021°26'0 0.0
2019-May-17 11:30N 61°08' E 021°26'0 0.0
2019-May-17 11:00N 61°08' E 021°26'0 0.0
2019-May-17 10:30N 61°08' E 021°26'0 0.0
2019-May-17 10:00N 61°08' E 021°26'0 0.0
2019-May-17 09:30N 61°08' E 021°26'0 0.0
2019-May-17 09:00N 61°08' E 021°26'0 0.0
2019-May-17 08:30N 61°08' E 021°26'0 0.0
2019-May-17 08:00N 61°08' E 021°26'0 0.0
2019-May-17 07:30N 61°08' E 021°26'0 0.0
2019-May-17 07:00N 61°08' E 021°26'0 0.0
2019-May-17 06:30N 61°08' E 021°26'0 0.0
2019-May-17 06:00N 61°08' E 021°26'0 0.0
2019-May-17 05:30N 61°08' E 021°26'0 0.0
2019-May-17 05:00N 61°08' E 021°26'0 0.0
2019-May-17 04:30N 61°08' E 021°26'0 0.0
2019-May-17 04:00N 61°08' E 021°26'0 0.0
2019-May-17 03:30N 61°08' E 021°26'0 0.0
2019-May-17 03:00N 61°08' E 021°26'0 0.0
2019-May-17 02:30N 61°08' E 021°26'0 0.0
2019-May-17 02:00N 61°08' E 021°26'0 0.0
2019-May-17 01:30N 61°08' E 021°26'0 0.0
2019-May-17 01:00N 61°08' E 021°26'0 0.0
2019-May-17 00:30N 61°08' E 021°26'0 0.0
2019-May-17 00:00N 61°08' E 021°26'0 0.0
2019-May-16 23:30N 61°08' E 021°26'0 0.0
2019-May-16 23:00N 61°08' E 021°26'0 0.0
2019-May-16 22:30N 61°08' E 021°26'0 0.0
2019-May-16 21:54N 61°08' E 021°26'0 0.0
2019-May-16 21:27N 61°08' E 021°26'0 0.0
2019-May-16 20:57N 61°08' E 021°26'0 0.0
2019-May-16 20:30N 61°08' E 021°26'0 0.0
2019-May-16 19:57N 61°08' E 021°26'0 0.0
2019-May-16 19:30N 61°08' E 021°26'0 0.0
2019-May-16 18:57N 61°08' E 021°26'0 0.0
2019-May-16 18:27N 61°08' E 021°26'0 0.0
2019-May-16 17:59N 61°08' E 021°26'0 0.0
2019-May-16 17:29N 61°08' E 021°26'0 0.0
2019-May-16 16:59N 61°08' E 021°26'0 0.0
2019-May-16 16:29N 61°08' E 021°26'0 0.0
2019-May-16 15:59N 61°08' E 021°26'0 0.0
2019-May-16 15:20N 61°08' E 021°26'0 0.0
2019-May-16 15:00N 61°08' E 021°26'0 0.0
2019-May-16 14:30N 61°08' E 021°26'0 0.0
2019-May-16 13:59N 61°08' E 021°26'0 0.0
2019-May-16 13:26N 61°08' E 021°26'0 0.0
2019-May-16 13:00N 61°08' E 021°26'0 0.6
2019-May-16 12:30N 61°08' E 021°26'4 7.0
2019-May-16 12:00N 61°06' E 021°19'612.0
2019-May-16 11:31N 61°08' E 021°08'7318.5
2019-May-16 07:32N 60°28' E 019°02'218.9
2019-May-16 07:26N 60°26' E 019°02'818.8
2019-May-16 07:00N 60°18' E 019°01'918.4
2019-May-16 06:31N 60°10' E 019°09'918.8
2019-May-16 06:00N 60°02' E 019°21'918.8
2019-May-16 05:31N 59°55' E 019°33'918.7
2019-May-16 05:01N 59°48' E 019°45'  

Dump ship's entire track history